Salem, Virginia
Current Conditions -  °F | °C
As of 2:54 PM on Thursday 27 Nov 2014 (Local Time) from KROA Reporting Station
Broken Clouds Broken Clouds  
Wind Chill: 31°   Ceiling: 4600
Heat Index: 40°   Visibility: 10mi
Dew Point: 23°   Wind: 17mph
Humidity: 51%   Direction: 300°WNW
Pressure: 30.11"   Gusts: 22mph
Location:  37.29°N, 80.05°W
Report Text: KROA 271954Z 30015G19KT 270V340 10SM BKN046 04/M05 A3011 RMK AO2 SLP203 T00441050
Loading
Personal Weather Stations






























Interactive Weather Map New forecast layout! Learn more

10-Day Weather Forecast

Advertisements
Track Severe Weather on mobile